sensor_id;sensor_type;location;lat;lon;timestamp;P1;durP1;ratioP1;P2;durP2;ratioP2
36377;SDS011;22402;42.746;23.606;2022-12-18T00:00:33;27.30;;;14.70;;
36377;SDS011;22402;42.746;23.606;2022-12-18T00:02:58;24.30;;;12.80;;
36377;SDS011;22402;42.746;23.606;2022-12-18T00:05:23;31.63;;;14.10;;
36377;SDS011;22402;42.746;23.606;2022-12-18T00:07:48;25.03;;;13.03;;
36377;SDS011;22402;42.746;23.606;2022-12-18T00:10:14;29.87;;;13.67;;
36377;SDS011;22402;42.746;23.606;2022-12-18T00:12:39;40.80;;;16.90;;
36377;SDS011;22402;42.746;23.606;2022-12-18T00:15:04;25.10;;;13.60;;
36377;SDS011;22402;42.746;23.606;2022-12-18T00:17:29;30.83;;;14.17;;
36377;SDS011;22402;42.746;23.606;2022-12-18T00:19:55;28.73;;;13.40;;
36377;SDS011;22402;42.746;23.606;2022-12-18T00:22:20;29.23;;;12.88;;
36377;SDS011;22402;42.746;23.606;2022-12-18T00:24:45;25.15;;;12.20;;
36377;SDS011;22402;42.746;23.606;2022-12-18T00:27:10;20.43;;;11.17;;
36377;SDS011;22402;42.746;23.606;2022-12-18T00:29:35;25.50;;;13.20;;
36377;SDS011;22402;42.746;23.606;2022-12-18T00:32:01;26.60;;;12.80;;
36377;SDS011;22402;42.746;23.606;2022-12-18T00:34:26;30.40;;;13.40;;
36377;SDS011;22402;42.746;23.606;2022-12-18T00:36:51;28.30;;;13.40;;
36377;SDS011;22402;42.746;23.606;2022-12-18T00:39:16;25.47;;;12.53;;
36377;SDS011;22402;42.746;23.606;2022-12-18T00:41:41;25.03;;;12.47;;
36377;SDS011;22402;42.746;23.606;2022-12-18T00:44:07;24.45;;;12.55;;
36377;SDS011;22402;42.746;23.606;2022-12-18T00:46:32;20.60;;;12.33;;
36377;SDS011;22402;42.746;23.606;2022-12-18T00:48:58;25.50;;;13.00;;
36377;SDS011;22402;42.746;23.606;2022-12-18T00:51:23;25.03;;;12.70;;
36377;SDS011;22402;42.746;23.606;2022-12-18T00:53:48;33.27;;;14.33;;
36377;SDS011;22402;42.746;23.606;2022-12-18T00:56:14;25.10;;;12.63;;
36377;SDS011;22402;42.746;23.606;2022-12-18T00:58:39;25.07;;;12.80;;
36377;SDS011;22402;42.746;23.606;2022-12-18T01:01:04;20.33;;;12.23;;
36377;SDS011;22402;42.746;23.606;2022-12-18T01:03:30;24.67;;;13.17;;
36377;SDS011;22402;42.746;23.606;2022-12-18T01:05:55;29.97;;;14.37;;
36377;SDS011;22402;42.746;23.606;2022-12-18T01:08:20;46.63;;;16.13;;
36377;SDS011;22402;42.746;23.606;2022-12-18T01:10:45;23.63;;;12.60;;
36377;SDS011;22402;42.746;23.606;2022-12-18T01:13:10;24.93;;;13.13;;
36377;SDS011;22402;42.746;23.606;2022-12-18T01:15:36;21.48;;;12.73;;
36377;SDS011;22402;42.746;23.606;2022-12-18T01:18:01;22.27;;;12.33;;
36377;SDS011;22402;42.746;23.606;2022-12-18T01:20:26;27.10;;;13.67;;
36377;SDS011;22402;42.746;23.606;2022-12-18T01:22:51;32.88;;;16.38;;
36377;SDS011;22402;42.746;23.606;2022-12-18T01:25:16;35.47;;;16.80;;
36377;SDS011;22402;42.746;23.606;2022-12-18T01:27:42;28.20;;;14.97;;
36377;SDS011;22402;42.746;23.606;2022-12-18T01:30:07;31.05;;;15.15;;
36377;SDS011;22402;42.746;23.606;2022-12-18T01:32:32;29.53;;;16.50;;
36377;SDS011;22402;42.746;23.606;2022-12-18T01:34:57;28.83;;;14.87;;
36377;SDS011;22402;42.746;23.606;2022-12-18T01:37:23;26.83;;;14.37;;
36377;SDS011;22402;42.746;23.606;2022-12-18T01:39:48;30.63;;;15.23;;
36377;SDS011;22402;42.746;23.606;2022-12-18T01:42:14;30.23;;;15.57;;
36377;SDS011;22402;42.746;23.606;2022-12-18T01:47:40;34.93;;;15.30;;
36377;SDS011;22402;42.746;23.606;2022-12-18T01:50:16;32.67;;;16.93;;
36377;SDS011;22402;42.746;23.606;2022-12-18T01:52:42;28.03;;;14.60;;
36377;SDS011;22402;42.746;23.606;2022-12-18T01:55:08;38.77;;;16.77;;
36377;SDS011;22402;42.746;23.606;2022-12-18T01:57:33;24.67;;;14.80;;
36377;SDS011;22402;42.746;23.606;2022-12-18T02:00:00;33.63;;;14.40;;
36377;SDS011;22402;42.746;23.606;2022-12-18T02:02:26;33.30;;;16.40;;
36377;SDS011;22402;42.746;23.606;2022-12-18T02:04:51;32.83;;;15.27;;
36377;SDS011;22402;42.746;23.606;2022-12-18T02:07:23;40.53;;;15.77;;
36377;SDS011;22402;42.746;23.606;2022-12-18T02:12:19;32.47;;;15.27;;
36377;SDS011;22402;42.746;23.606;2022-12-18T02:17:11;32.88;;;15.45;;
36377;SDS011;22402;42.746;23.606;2022-12-18T02:19:46;30.83;;;16.37;;
36377;SDS011;22402;42.746;23.606;2022-12-18T02:24:52;33.10;;;15.13;;
36377;SDS011;22402;42.746;23.606;2022-12-18T02:27:18;40.83;;;16.20;;
36377;SDS011;22402;42.746;23.606;2022-12-18T02:29:50;28.77;;;13.70;;
36377;SDS011;22402;42.746;23.606;2022-12-18T02:32:18;26.17;;;14.00;;
36377;SDS011;22402;42.746;23.606;2022-12-18T02:34:45;27.37;;;15.30;;
36377;SDS011;22402;42.746;23.606;2022-12-18T02:37:12;28.73;;;14.57;;
36377;SDS011;22402;42.746;23.606;2022-12-18T02:39:39;25.70;;;15.00;;
36377;SDS011;22402;42.746;23.606;2022-12-18T02:42:05;30.47;;;16.07;;
36377;SDS011;22402;42.746;23.606;2022-12-18T02:44:31;23.37;;;14.00;;
36377;SDS011;22402;42.746;23.606;2022-12-18T02:46:56;28.37;;;15.87;;
36377;SDS011;22402;42.746;23.606;2022-12-18T02:51:53;29.80;;;14.60;;
36377;SDS011;22402;42.746;23.606;2022-12-18T02:54:27;40.13;;;15.73;;
36377;SDS011;22402;42.746;23.606;2022-12-18T02:56:59;40.23;;;16.10;;
36377;SDS011;22402;42.746;23.606;2022-12-18T02:59:34;30.50;;;15.77;;
36377;SDS011;22402;42.746;23.606;2022-12-18T03:02:47;31.53;;;16.20;;
36377;SDS011;22402;42.746;23.606;2022-12-18T03:07:21;27.13;;;14.82;;
36377;SDS011;22402;42.746;23.606;2022-12-18T03:09:49;32.33;;;15.97;;
36377;SDS011;22402;42.746;23.606;2022-12-18T03:14:40;27.50;;;14.50;;
36377;SDS011;22402;42.746;23.606;2022-12-18T03:17:07;31.10;;;15.60;;
36377;SDS011;22402;42.746;23.606;2022-12-18T03:19:36;30.23;;;15.13;;
36377;SDS011;22402;42.746;23.606;2022-12-18T03:22:02;27.33;;;14.00;;
36377;SDS011;22402;42.746;23.606;2022-12-18T03:24:29;31.17;;;15.27;;
36377;SDS011;22402;42.746;23.606;2022-12-18T03:26:57;29.30;;;15.17;;
36377;SDS011;22402;42.746;23.606;2022-12-18T03:32:23;26.33;;;14.60;;
36377;SDS011;22402;42.746;23.606;2022-12-18T03:34:49;29.80;;;13.67;;
36377;SDS011;22402;42.746;23.606;2022-12-18T03:37:15;31.10;;;15.30;;
36377;SDS011;22402;42.746;23.606;2022-12-18T03:39:40;40.60;;;15.00;;
36377;SDS011;22402;42.746;23.606;2022-12-18T03:47:23;39.63;;;16.40;;
36377;SDS011;22402;42.746;23.606;2022-12-18T03:52:28;40.70;;;15.17;;
36377;SDS011;22402;42.746;23.606;2022-12-18T03:54:55;28.83;;;12.37;;
36377;SDS011;22402;42.746;23.606;2022-12-18T03:57:21;27.07;;;14.07;;
36377;SDS011;22402;42.746;23.606;2022-12-18T03:59:49;27.20;;;13.43;;
36377;SDS011;22402;42.746;23.606;2022-12-18T04:02:16;26.87;;;13.40;;
36377;SDS011;22402;42.746;23.606;2022-12-18T04:04:42;37.07;;;15.87;;
36377;SDS011;22402;42.746;23.606;2022-12-18T04:07:07;34.87;;;15.80;;
36377;SDS011;22402;42.746;23.606;2022-12-18T04:09:33;30.60;;;14.30;;
36377;SDS011;22402;42.746;23.606;2022-12-18T04:11:59;43.63;;;16.50;;
36377;SDS011;22402;42.746;23.606;2022-12-18T04:14:24;31.92;;;15.55;;
36377;SDS011;22402;42.746;23.606;2022-12-18T04:16:49;29.70;;;15.00;;
36377;SDS011;22402;42.746;23.606;2022-12-18T04:19:14;28.97;;;13.40;;
36377;SDS011;22402;42.746;23.606;2022-12-18T04:21:39;32.80;;;14.30;;
36377;SDS011;22402;42.746;23.606;2022-12-18T04:24:05;30.83;;;14.73;;
36377;SDS011;22402;42.746;23.606;2022-12-18T04:26:30;30.67;;;14.20;;
36377;SDS011;22402;42.746;23.606;2022-12-18T04:28:55;36.03;;;15.87;;
36377;SDS011;22402;42.746;23.606;2022-12-18T04:31:21;35.90;;;14.63;;
36377;SDS011;22402;42.746;23.606;2022-12-18T04:33:46;44.57;;;16.53;;
36377;SDS011;22402;42.746;23.606;2022-12-18T04:36:11;37.43;;;14.53;;
36377;SDS011;22402;42.746;23.606;2022-12-18T04:38:36;31.60;;;13.20;;
36377;SDS011;22402;42.746;23.606;2022-12-18T04:41:02;34.50;;;14.68;;
36377;SDS011;22402;42.746;23.606;2022-12-18T04:43:27;26.33;;;13.37;;
36377;SDS011;22402;42.746;23.606;2022-12-18T04:45:52;42.33;;;15.17;;
36377;SDS011;22402;42.746;23.606;2022-12-18T04:48:17;24.13;;;13.27;;
36377;SDS011;22402;42.746;23.606;2022-12-18T04:51:01;23.30;;;12.23;;
36377;SDS011;22402;42.746;23.606;2022-12-18T04:53:35;29.40;;;13.27;;
36377;SDS011;22402;42.746;23.606;2022-12-18T04:58:29;37.23;;;14.40;;
36377;SDS011;22402;42.746;23.606;2022-12-18T05:00:54;53.53;;;18.13;;
36377;SDS011;22402;42.746;23.606;2022-12-18T05:03:19;34.67;;;14.30;;
36377;SDS011;22402;42.746;23.606;2022-12-18T05:05:44;47.83;;;15.60;;
36377;SDS011;22402;42.746;23.606;2022-12-18T05:08:10;33.20;;;14.87;;
36377;SDS011;22402;42.746;23.606;2022-12-18T05:10:35;35.87;;;16.63;;
36377;SDS011;22402;42.746;23.606;2022-12-18T05:13:00;32.43;;;15.80;;
36377;SDS011;22402;42.746;23.606;2022-12-18T05:15:29;51.80;;;18.13;;
36377;SDS011;22402;42.746;23.606;2022-12-18T05:17:54;35.77;;;15.97;;
36377;SDS011;22402;42.746;23.606;2022-12-18T05:20:19;43.60;;;17.07;;
36377;SDS011;22402;42.746;23.606;2022-12-18T05:22:44;36.78;;;15.88;;
36377;SDS011;22402;42.746;23.606;2022-12-18T05:25:10;43.90;;;18.83;;
36377;SDS011;22402;42.746;23.606;2022-12-18T05:27:35;35.97;;;16.17;;
36377;SDS011;22402;42.746;23.606;2022-12-18T05:30:00;41.63;;;17.00;;
36377;SDS011;22402;42.746;23.606;2022-12-18T05:32:25;49.05;;;20.48;;
36377;SDS011;22402;42.746;23.606;2022-12-18T05:34:50;40.60;;;18.43;;
36377;SDS011;22402;42.746;23.606;2022-12-18T05:37:16;46.53;;;20.10;;
36377;SDS011;22402;42.746;23.606;2022-12-18T05:39:42;39.28;;;17.75;;
36377;SDS011;22402;42.746;23.606;2022-12-18T05:42:16;42.80;;;18.00;;
36377;SDS011;22402;42.746;23.606;2022-12-18T05:44:41;38.63;;;18.47;;
36377;SDS011;22402;42.746;23.606;2022-12-18T05:47:06;43.30;;;17.38;;
36377;SDS011;22402;42.746;23.606;2022-12-18T05:49:31;36.03;;;16.47;;
36377;SDS011;22402;42.746;23.606;2022-12-18T05:51:56;44.35;;;18.42;;
36377;SDS011;22402;42.746;23.606;2022-12-18T05:54:21;42.42;;;19.17;;
36377;SDS011;22402;42.746;23.606;2022-12-18T05:56:47;38.87;;;19.00;;
36377;SDS011;22402;42.746;23.606;2022-12-18T05:59:12;48.30;;;17.45;;
36377;SDS011;22402;42.746;23.606;2022-12-18T06:01:37;38.40;;;18.30;;
36377;SDS011;22402;42.746;23.606;2022-12-18T06:04:02;51.58;;;19.50;;
36377;SDS011;22402;42.746;23.606;2022-12-18T06:06:28;68.87;;;24.03;;
36377;SDS011;22402;42.746;23.606;2022-12-18T06:08:53;40.30;;;18.60;;
36377;SDS011;22402;42.746;23.606;2022-12-18T06:11:20;37.37;;;16.77;;
36377;SDS011;22402;42.746;23.606;2022-12-18T06:13:45;34.50;;;16.80;;
36377;SDS011;22402;42.746;23.606;2022-12-18T06:16:10;45.43;;;19.90;;
36377;SDS011;22402;42.746;23.606;2022-12-18T06:18:39;39.07;;;17.40;;
36377;SDS011;22402;42.746;23.606;2022-12-18T06:21:04;34.40;;;17.70;;
36377;SDS011;22402;42.746;23.606;2022-12-18T06:23:29;47.00;;;20.00;;
36377;SDS011;22402;42.746;23.606;2022-12-18T06:25:55;39.03;;;17.97;;
36377;SDS011;22402;42.746;23.606;2022-12-18T06:28:20;38.90;;;17.50;;
36377;SDS011;22402;42.746;23.606;2022-12-18T06:30:45;40.73;;;18.23;;
36377;SDS011;22402;42.746;23.606;2022-12-18T06:33:10;43.13;;;19.60;;
36377;SDS011;22402;42.746;23.606;2022-12-18T06:35:36;43.60;;;17.90;;
36377;SDS011;22402;42.746;23.606;2022-12-18T06:38:01;37.40;;;19.03;;
36377;SDS011;22402;42.746;23.606;2022-12-18T06:40:26;49.37;;;19.80;;
36377;SDS011;22402;42.746;23.606;2022-12-18T06:42:51;40.73;;;18.13;;
36377;SDS011;22402;42.746;23.606;2022-12-18T06:45:17;46.33;;;20.23;;
36377;SDS011;22402;42.746;23.606;2022-12-18T06:47:42;45.20;;;19.50;;
36377;SDS011;22402;42.746;23.606;2022-12-18T06:50:07;55.17;;;21.87;;
36377;SDS011;22402;42.746;23.606;2022-12-18T06:52:33;69.00;;;22.80;;
36377;SDS011;22402;42.746;23.606;2022-12-18T06:54:58;45.23;;;19.33;;
36377;SDS011;22402;42.746;23.606;2022-12-18T06:57:23;45.95;;;20.50;;
36377;SDS011;22402;42.746;23.606;2022-12-18T06:59:48;58.80;;;21.13;;
36377;SDS011;22402;42.746;23.606;2022-12-18T07:02:13;48.83;;;19.23;;
36377;SDS011;22402;42.746;23.606;2022-12-18T07:04:44;51.80;;;20.60;;
36377;SDS011;22402;42.746;23.606;2022-12-18T07:07:10;71.00;;;27.60;;
36377;SDS011;22402;42.746;23.606;2022-12-18T07:09:35;49.30;;;22.47;;
36377;SDS011;22402;42.746;23.606;2022-12-18T07:12:00;54.47;;;22.67;;
36377;SDS011;22402;42.746;23.606;2022-12-18T07:14:25;60.17;;;22.33;;
36377;SDS011;22402;42.746;23.606;2022-12-18T07:16:50;55.07;;;22.20;;
36377;SDS011;22402;42.746;23.606;2022-12-18T07:19:16;59.57;;;24.80;;
36377;SDS011;22402;42.746;23.606;2022-12-18T07:21:41;54.83;;;22.53;;
36377;SDS011;22402;42.746;23.606;2022-12-18T07:24:06;55.95;;;21.92;;
36377;SDS011;22402;42.746;23.606;2022-12-18T07:26:31;48.63;;;22.57;;
36377;SDS011;22402;42.746;23.606;2022-12-18T07:28:57;51.33;;;24.57;;
36377;SDS011;22402;42.746;23.606;2022-12-18T07:31:23;60.93;;;27.50;;
36377;SDS011;22402;42.746;23.606;2022-12-18T07:33:48;55.63;;;27.50;;
36377;SDS011;22402;42.746;23.606;2022-12-18T07:36:13;59.20;;;25.47;;
36377;SDS011;22402;42.746;23.606;2022-12-18T07:38:38;53.50;;;24.40;;
36377;SDS011;22402;42.746;23.606;2022-12-18T07:41:04;54.80;;;25.07;;
36377;SDS011;22402;42.746;23.606;2022-12-18T07:43:30;47.53;;;23.80;;
36377;SDS011;22402;42.746;23.606;2022-12-18T07:45:55;58.77;;;24.50;;
36377;SDS011;22402;42.746;23.606;2022-12-18T07:48:20;51.38;;;22.00;;
36377;SDS011;22402;42.746;23.606;2022-12-18T07:50:45;67.57;;;24.80;;
36377;SDS011;22402;42.746;23.606;2022-12-18T07:53:11;41.40;;;20.50;;
36377;SDS011;22402;42.746;23.606;2022-12-18T07:55:36;41.85;;;21.05;;
36377;SDS011;22402;42.746;23.606;2022-12-18T07:58:02;49.27;;;23.17;;
36377;SDS011;22402;42.746;23.606;2022-12-18T08:00:27;45.50;;;21.50;;
36377;SDS011;22402;42.746;23.606;2022-12-18T08:02:53;49.30;;;22.17;;
36377;SDS011;22402;42.746;23.606;2022-12-18T08:05:18;49.00;;;21.60;;
36377;SDS011;22402;42.746;23.606;2022-12-18T08:07:44;40.77;;;21.33;;
36377;SDS011;22402;42.746;23.606;2022-12-18T08:10:09;60.33;;;23.57;;
36377;SDS011;22402;42.746;23.606;2022-12-18T08:12:34;50.13;;;22.60;;
36377;SDS011;22402;42.746;23.606;2022-12-18T08:15:00;51.33;;;22.73;;
36377;SDS011;22402;42.746;23.606;2022-12-18T08:17:25;50.57;;;23.53;;
36377;SDS011;22402;42.746;23.606;2022-12-18T08:19:50;56.80;;;23.70;;
36377;SDS011;22402;42.746;23.606;2022-12-18T08:22:15;52.60;;;22.50;;
36377;SDS011;22402;42.746;23.606;2022-12-18T08:24:40;63.40;;;25.42;;
36377;SDS011;22402;42.746;23.606;2022-12-18T08:27:06;71.85;;;27.02;;
36377;SDS011;22402;42.746;23.606;2022-12-18T08:29:31;58.58;;;25.02;;
36377;SDS011;22402;42.746;23.606;2022-12-18T08:31:56;52.20;;;23.07;;
36377;SDS011;22402;42.746;23.606;2022-12-18T08:34:21;43.22;;;21.90;;
36377;SDS011;22402;42.746;23.606;2022-12-18T08:36:46;48.97;;;22.40;;
36377;SDS011;22402;42.746;23.606;2022-12-18T08:39:11;39.53;;;21.87;;
36377;SDS011;22402;42.746;23.606;2022-12-18T08:41:37;85.67;;;40.07;;
36377;SDS011;22402;42.746;23.606;2022-12-18T08:44:02;89.45;;;41.53;;
36377;SDS011;22402;42.746;23.606;2022-12-18T08:46:27;57.20;;;29.53;;
36377;SDS011;22402;42.746;23.606;2022-12-18T08:48:55;52.47;;;24.00;;
36377;SDS011;22402;42.746;23.606;2022-12-18T08:51:21;53.13;;;22.07;;
36377;SDS011;22402;42.746;23.606;2022-12-18T08:53:46;42.87;;;22.93;;
36377;SDS011;22402;42.746;23.606;2022-12-18T08:56:12;45.50;;;21.73;;
36377;SDS011;22402;42.746;23.606;2022-12-18T08:58:37;50.17;;;23.73;;
36377;SDS011;22402;42.746;23.606;2022-12-18T09:01:03;51.95;;;23.98;;
36377;SDS011;22402;42.746;23.606;2022-12-18T09:03:29;43.60;;;22.43;;
36377;SDS011;22402;42.746;23.606;2022-12-18T09:05:54;57.13;;;24.53;;
36377;SDS011;22402;42.746;23.606;2022-12-18T09:08:19;51.13;;;23.30;;
36377;SDS011;22402;42.746;23.606;2022-12-18T09:10:44;51.22;;;25.60;;
36377;SDS011;22402;42.746;23.606;2022-12-18T09:13:10;52.10;;;23.47;;
36377;SDS011;22402;42.746;23.606;2022-12-18T09:15:42;54.03;;;24.80;;
36377;SDS011;22402;42.746;23.606;2022-12-18T09:18:08;55.87;;;25.10;;
36377;SDS011;22402;42.746;23.606;2022-12-18T09:20:34;53.00;;;24.20;;
36377;SDS011;22402;42.746;23.606;2022-12-18T09:22:59;54.40;;;24.03;;
36377;SDS011;22402;42.746;23.606;2022-12-18T09:25:24;47.05;;;24.70;;
36377;SDS011;22402;42.746;23.606;2022-12-18T09:27:49;55.40;;;25.33;;
36377;SDS011;22402;42.746;23.606;2022-12-18T09:30:15;49.33;;;24.10;;
36377;SDS011;22402;42.746;23.606;2022-12-18T09:32:40;58.75;;;25.55;;
36377;SDS011;22402;42.746;23.606;2022-12-18T09:35:05;54.20;;;26.30;;
36377;SDS011;22402;42.746;23.606;2022-12-18T09:37:30;66.03;;;25.23;;
36377;SDS011;22402;42.746;23.606;2022-12-18T09:39:55;61.53;;;26.37;;
36377;SDS011;22402;42.746;23.606;2022-12-18T09:42:21;73.83;;;28.83;;
36377;SDS011;22402;42.746;23.606;2022-12-18T09:44:50;53.10;;;25.20;;
36377;SDS011;22402;42.746;23.606;2022-12-18T09:47:17;63.20;;;27.93;;
36377;SDS011;22402;42.746;23.606;2022-12-18T09:49:44;52.63;;;24.90;;
36377;SDS011;22402;42.746;23.606;2022-12-18T09:57:37;55.53;;;24.23;;
36377;SDS011;22402;42.746;23.606;2022-12-18T10:00:08;53.87;;;24.50;;
36377;SDS011;22402;42.746;23.606;2022-12-18T10:02:33;55.47;;;23.70;;
36377;SDS011;22402;42.746;23.606;2022-12-18T10:07:26;68.15;;;28.15;;
36377;SDS011;22402;42.746;23.606;2022-12-18T10:10:00;45.93;;;23.60;;
36377;SDS011;22402;42.746;23.606;2022-12-18T10:15:30;42.83;;;22.97;;
36377;SDS011;22402;42.746;23.606;2022-12-18T10:18:06;93.27;;;32.60;;
36377;SDS011;22402;42.746;23.606;2022-12-18T10:23:17;77.80;;;28.17;;
36377;SDS011;22402;42.746;23.606;2022-12-18T10:28:17;84.63;;;30.63;;
36377;SDS011;22402;42.746;23.606;2022-12-18T10:30:43;80.13;;;30.13;;
36377;SDS011;22402;42.746;23.606;2022-12-18T10:33:13;76.90;;;32.50;;
36377;SDS011;22402;42.746;23.606;2022-12-18T10:35:40;90.10;;;32.57;;
36377;SDS011;22402;42.746;23.606;2022-12-18T10:43:15;77.53;;;30.70;;
36377;SDS011;22402;42.746;23.606;2022-12-18T10:45:44;63.80;;;27.37;;
36377;SDS011;22402;42.746;23.606;2022-12-18T10:48:22;66.40;;;27.20;;
36377;SDS011;22402;42.746;23.606;2022-12-18T10:50:49;71.70;;;28.80;;
36377;SDS011;22402;42.746;23.606;2022-12-18T10:53:18;67.67;;;29.93;;
36377;SDS011;22402;42.746;23.606;2022-12-18T10:55:44;63.23;;;27.50;;
36377;SDS011;22402;42.746;23.606;2022-12-18T11:00:38;79.70;;;31.17;;
36377;SDS011;22402;42.746;23.606;2022-12-18T11:03:07;65.63;;;29.67;;
36377;SDS011;22402;42.746;23.606;2022-12-18T11:05:49;77.40;;;31.70;;
36377;SDS011;22402;42.746;23.606;2022-12-18T11:08:25;71.73;;;31.40;;
36377;SDS011;22402;42.746;23.606;2022-12-18T11:10:50;61.33;;;28.63;;
36377;SDS011;22402;42.746;23.606;2022-12-18T11:13:20;66.17;;;29.47;;
36377;SDS011;22402;42.746;23.606;2022-12-18T11:15:45;71.10;;;30.50;;
36377;SDS011;22402;42.746;23.606;2022-12-18T11:18:22;92.80;;;33.90;;
36377;SDS011;22402;42.746;23.606;2022-12-18T11:20:50;70.10;;;29.37;;
36377;SDS011;22402;42.746;23.606;2022-12-18T11:23:15;76.13;;;27.80;;
36377;SDS011;22402;42.746;23.606;2022-12-18T11:25:40;69.07;;;28.23;;
36377;SDS011;22402;42.746;23.606;2022-12-18T11:31:23;73.10;;;29.03;;
36377;SDS011;22402;42.746;23.606;2022-12-18T11:34:05;51.73;;;26.43;;
36377;SDS011;22402;42.746;23.606;2022-12-18T11:36:36;74.87;;;29.70;;
36377;SDS011;22402;42.746;23.606;2022-12-18T11:39:07;61.80;;;25.97;;
36377;SDS011;22402;42.746;23.606;2022-12-18T11:41:38;58.17;;;27.20;;
36377;SDS011;22402;42.746;23.606;2022-12-18T11:44:03;70.40;;;29.53;;
36377;SDS011;22402;42.746;23.606;2022-12-18T11:46:37;45.97;;;24.37;;
36377;SDS011;22402;42.746;23.606;2022-12-18T11:49:07;51.97;;;25.10;;
36377;SDS011;22402;42.746;23.606;2022-12-18T11:54:20;51.87;;;25.50;;
36377;SDS011;22402;42.746;23.606;2022-12-18T11:59:32;55.93;;;27.50;;
36377;SDS011;22402;42.746;23.606;2022-12-18T12:07:17;64.20;;;30.80;;
36377;SDS011;22402;42.746;23.606;2022-12-18T12:14:58;51.53;;;25.87;;
36377;SDS011;22402;42.746;23.606;2022-12-18T12:22:24;58.67;;;27.67;;
36377;SDS011;22402;42.746;23.606;2022-12-18T12:39:54;55.37;;;25.63;;
36377;SDS011;22402;42.746;23.606;2022-12-18T12:42:43;48.67;;;23.37;;
36377;SDS011;22402;42.746;23.606;2022-12-18T12:45:14;57.40;;;26.03;;
36377;SDS011;22402;42.746;23.606;2022-12-18T12:47:41;51.03;;;24.00;;
36377;SDS011;22402;42.746;23.606;2022-12-18T12:50:12;54.27;;;27.77;;
36377;SDS011;22402;42.746;23.606;2022-12-18T12:52:45;46.53;;;23.57;;
36377;SDS011;22402;42.746;23.606;2022-12-18T12:55:14;56.87;;;25.90;;
36377;SDS011;22402;42.746;23.606;2022-12-18T12:57:41;48.10;;;25.33;;
36377;SDS011;22402;42.746;23.606;2022-12-18T13:00:11;47.03;;;25.63;;
36377;SDS011;22402;42.746;23.606;2022-12-18T13:07:51;50.13;;;24.37;;
36377;SDS011;22402;42.746;23.606;2022-12-18T13:15:21;46.83;;;22.57;;
36377;SDS011;22402;42.746;23.606;2022-12-18T13:17:47;46.60;;;23.50;;
36377;SDS011;22402;42.746;23.606;2022-12-18T13:20:15;45.33;;;20.60;;
36377;SDS011;22402;42.746;23.606;2022-12-18T13:22:42;39.00;;;20.40;;
36377;SDS011;22402;42.746;23.606;2022-12-18T13:28:11;35.07;;;18.60;;
36377;SDS011;22402;42.746;23.606;2022-12-18T13:35:40;40.20;;;20.33;;
36377;SDS011;22402;42.746;23.606;2022-12-18T13:38:39;40.80;;;19.43;;
36377;SDS011;22402;42.746;23.606;2022-12-18T13:41:00;34.47;;;18.10;;
36377;SDS011;22402;42.746;23.606;2022-12-18T13:43:39;33.73;;;18.57;;
36377;SDS011;22402;42.746;23.606;2022-12-18T13:46:51;38.60;;;19.47;;
36377;SDS011;22402;42.746;23.606;2022-12-18T13:49:37;41.50;;;21.10;;
36377;SDS011;22402;42.746;23.606;2022-12-18T13:51:36;37.23;;;19.87;;
36377;SDS011;22402;42.746;23.606;2022-12-18T13:56:48;43.90;;;21.47;;
36377;SDS011;22402;42.746;23.606;2022-12-18T13:59:18;42.00;;;21.10;;
36377;SDS011;22402;42.746;23.606;2022-12-18T14:01:44;48.53;;;21.80;;
36377;SDS011;22402;42.746;23.606;2022-12-18T14:04:11;44.23;;;22.47;;
36377;SDS011;22402;42.746;23.606;2022-12-18T14:06:36;45.67;;;22.23;;
36377;SDS011;22402;42.746;23.606;2022-12-18T14:09:02;44.30;;;22.47;;
36377;SDS011;22402;42.746;23.606;2022-12-18T14:11:27;42.33;;;22.80;;
36377;SDS011;22402;42.746;23.606;2022-12-18T14:13:52;45.80;;;23.47;;
36377;SDS011;22402;42.746;23.606;2022-12-18T14:16:18;41.67;;;22.07;;
36377;SDS011;22402;42.746;23.606;2022-12-18T14:18:48;45.17;;;24.40;;
36377;SDS011;22402;42.746;23.606;2022-12-18T14:21:17;50.83;;;23.83;;
36377;SDS011;22402;42.746;23.606;2022-12-18T14:23:42;41.10;;;19.97;;
36377;SDS011;22402;42.746;23.606;2022-12-18T14:26:27;41.50;;;19.87;;
36377;SDS011;22402;42.746;23.606;2022-12-18T14:28:53;39.00;;;21.77;;
36377;SDS011;22402;42.746;23.606;2022-12-18T14:31:19;54.57;;;23.70;;
36377;SDS011;22402;42.746;23.606;2022-12-18T14:33:44;39.60;;;20.83;;
36377;SDS011;22402;42.746;23.606;2022-12-18T14:36:14;51.95;;;25.88;;
36377;SDS011;22402;42.746;23.606;2022-12-18T14:38:40;81.10;;;37.40;;
36377;SDS011;22402;42.746;23.606;2022-12-18T14:41:06;63.08;;;32.67;;
36377;SDS011;22402;42.746;23.606;2022-12-18T14:43:35;58.33;;;30.93;;
36377;SDS011;22402;42.746;23.606;2022-12-18T14:46:01;83.57;;;41.67;;
36377;SDS011;22402;42.746;23.606;2022-12-18T14:48:37;64.80;;;32.83;;
36377;SDS011;22402;42.746;23.606;2022-12-18T14:53:35;59.33;;;31.93;;
36377;SDS011;22402;42.746;23.606;2022-12-18T14:56:01;50.77;;;27.33;;
36377;SDS011;22402;42.746;23.606;2022-12-18T14:58:27;61.87;;;28.17;;
36377;SDS011;22402;42.746;23.606;2022-12-18T15:00:52;61.57;;;28.60;;
36377;SDS011;22402;42.746;23.606;2022-12-18T15:03:18;62.83;;;27.27;;
36377;SDS011;22402;42.746;23.606;2022-12-18T15:05:44;52.57;;;25.87;;
36377;SDS011;22402;42.746;23.606;2022-12-18T15:08:34;46.47;;;24.87;;
36377;SDS011;22402;42.746;23.606;2022-12-18T15:10:59;65.23;;;29.03;;
36377;SDS011;22402;42.746;23.606;2022-12-18T15:13:24;52.08;;;26.80;;
36377;SDS011;22402;42.746;23.606;2022-12-18T15:15:50;54.17;;;27.50;;
36377;SDS011;22402;42.746;23.606;2022-12-18T15:18:16;52.80;;;26.37;;
36377;SDS011;22402;42.746;23.606;2022-12-18T15:23:23;53.17;;;24.90;;
36377;SDS011;22402;42.746;23.606;2022-12-18T15:25:55;53.43;;;27.03;;
36377;SDS011;22402;42.746;23.606;2022-12-18T15:30:59;62.27;;;28.57;;
36377;SDS011;22402;42.746;23.606;2022-12-18T15:33:26;61.93;;;30.70;;
36377;SDS011;22402;42.746;23.606;2022-12-18T15:35:58;105.60;;;45.03;;
36377;SDS011;22402;42.746;23.606;2022-12-18T15:38:24;96.13;;;40.47;;
36377;SDS011;22402;42.746;23.606;2022-12-18T15:40:49;74.83;;;35.80;;
36377;SDS011;22402;42.746;23.606;2022-12-18T15:43:14;63.40;;;31.80;;
36377;SDS011;22402;42.746;23.606;2022-12-18T15:45:40;53.73;;;27.07;;
36377;SDS011;22402;42.746;23.606;2022-12-18T15:48:21;56.43;;;30.67;;
36377;SDS011;22402;42.746;23.606;2022-12-18T15:50:46;73.93;;;36.17;;
36377;SDS011;22402;42.746;23.606;2022-12-18T15:53:11;62.07;;;33.33;;
36377;SDS011;22402;42.746;23.606;2022-12-18T15:55:37;52.30;;;28.70;;
36377;SDS011;22402;42.746;23.606;2022-12-18T15:58:03;72.03;;;37.93;;
36377;SDS011;22402;42.746;23.606;2022-12-18T16:00:28;69.83;;;33.33;;
36377;SDS011;22402;42.746;23.606;2022-12-18T16:02:53;72.53;;;39.00;;
36377;SDS011;22402;42.746;23.606;2022-12-18T16:05:19;45.60;;;26.20;;
36377;SDS011;22402;42.746;23.606;2022-12-18T16:07:45;49.60;;;22.37;;
36377;SDS011;22402;42.746;23.606;2022-12-18T16:10:10;42.93;;;23.70;;